Time;durP1;ratioP1;P1;durP2;ratioP2;P2;SDS_P1;SDS_P2;PMS_P1;PMS_P2;Temp;Humidity;BMP_temperature;BMP_pressure;BME280_temperature;BME280_humidity;BME280_pressure;Samples;Min_cycle;Max_cycle;Signal;HPM_P1;HPM_P2
2022/07/10 00:01:36;;;;;;;4.28;0.85;;;;;;;;;;4990573;28;98528;-62
2022/07/10 00:04:02;;;;;;;0.60;0.60;;;;;;;;;;4990321;28;99452;-62
2022/07/10 00:06:28;;;;;;;1.27;0.57;;;;;;;;;;4993659;28;98784;-61
2022/07/10 00:08:55;;;;;;;1.40;0.82;;;;;;;;;;4990632;28;98423;-62
2022/07/10 00:11:21;;;;;;;1.00;0.60;;;;;;;;;;4990385;28;100638;-62
2022/07/10 00:13:47;;;;;;;1.52;0.70;;;;;;;;;;4989854;28;99333;-62
2022/07/10 00:16:14;;;;;;;1.77;0.70;;;;;;;;;;4990649;28;100872;-61
2022/07/10 00:18:40;;;;;;;1.17;0.68;;;;;;;;;;4989639;28;99581;-62
2022/07/10 00:21:08;;;;;;;1.60;0.80;;;;;;;;;;4990641;28;98431;-61
2022/07/10 00:23:34;;;;;;;1.48;0.90;;;;;;;;;;4990370;28;98813;-62
2022/07/10 00:26:00;;;;;;;1.98;0.93;;;;;;;;;;4989450;28;99643;-62
2022/07/10 00:28:26;;;;;;;2.78;0.98;;;;;;;;;;4992810;28;98963;-62
2022/07/10 00:30:53;;;;;;;2.92;0.98;;;;;;;;;;4993066;28;99844;-62
2022/07/10 00:33:19;;;;;;;2.78;1.00;;;;;;;;;;4993963;28;98505;-62
2022/07/10 00:35:46;;;;;;;1.67;0.68;;;;;;;;;;4993827;28;99661;-62
2022/07/10 00:38:12;;;;;;;3.30;0.95;;;;;;;;;;4993018;28;100253;-62
2022/07/10 00:40:38;;;;;;;1.08;0.70;;;;;;;;;;4993355;28;98548;-62
2022/07/10 00:43:07;;;;;;;2.70;0.90;;;;;;;;;;4993607;28;99228;-61
2022/07/10 00:45:34;;;;;;;1.10;0.65;;;;;;;;;;4993327;28;100052;-61
2022/07/10 00:48:00;;;;;;;1.38;0.80;;;;;;;;;;4993654;28;98576;-61
2022/07/10 00:50:27;;;;;;;2.55;0.80;;;;;;;;;;4996708;28;99343;-62
2022/07/10 00:52:53;;;;;;;3.13;0.77;;;;;;;;;;4993610;28;98481;-61
2022/07/10 00:55:20;;;;;;;2.30;0.90;;;;;;;;;;4993935;28;100239;-62
2022/07/10 00:57:46;;;;;;;1.13;0.70;;;;;;;;;;4993077;28;99312;-62
2022/07/10 01:00:13;;;;;;;3.30;0.60;;;;;;;;;;4993452;28;98482;-62
2022/07/10 01:02:43;;;;;;;0.90;0.60;;;;;;;;;;4992932;28;99283;-62
2022/07/10 01:05:09;;;;;;;;;;;;;;;;;;4993419;28;99489;-62
2022/07/10 01:07:36;;;;;;;1.52;0.75;;;;;;;;;;4993952;28;118444;-64
2022/07/10 01:10:03;;;;;;;1.63;0.70;;;;;;;;;;4993549;28;100237;-62
2022/07/10 01:12:31;;;;;;;1.30;0.70;;;;;;;;;;4996413;28;100559;-61
2022/07/10 01:14:58;;;;;;;2.00;1.00;;;;;;;;;;4993233;28;99232;-62
2022/07/10 01:17:25;;;;;;;2.10;0.73;;;;;;;;;;4992426;28;99591;-62
2022/07/10 01:19:51;;;;;;;2.15;1.00;;;;;;;;;;4993762;28;97753;-62
2022/07/10 01:22:17;;;;;;;1.85;0.63;;;;;;;;;;4993162;28;98735;-61
2022/07/10 01:24:44;;;;;;;1.13;0.80;;;;;;;;;;4992347;28;99599;-62
2022/07/10 01:27:11;;;;;;;0.77;0.60;;;;;;;;;;4992830;28;99348;-62
2022/07/10 01:29:37;;;;;;;1.15;0.63;;;;;;;;;;4993000;28;99572;-62
2022/07/10 01:32:04;;;;;;;1.17;0.80;;;;;;;;;;4992364;28;99915;-62
2022/07/10 01:34:30;;;;;;;1.20;0.63;;;;;;;;;;4996036;28;98462;-62
2022/07/10 01:36:56;;;;;;;1.90;0.80;;;;;;;;;;4992330;28;99565;-62
2022/07/10 01:39:23;;;;;;;0.95;0.77;;;;;;;;;;4992738;28;98511;-62
2022/07/10 01:41:49;;;;;;;2.20;0.63;;;;;;;;;;4991552;28;98444;-62
2022/07/10 01:44:15;;;;;;;0.85;0.60;;;;;;;;;;4992824;28;98839;-62
2022/07/10 01:46:45;;;;;;;1.10;0.60;;;;;;;;;;4992624;28;98527;-62
2022/07/10 01:49:12;;;;;;;2.50;0.77;;;;;;;;;;4992637;28;99223;-61
2022/07/10 01:51:38;;;;;;;1.77;0.80;;;;;;;;;;4991978;28;101187;-62
2022/07/10 01:54:04;;;;;;;1.48;0.55;;;;;;;;;;4992346;28;98579;-62
2022/07/10 01:56:31;;;;;;;1.38;0.80;;;;;;;;;;4995462;28;99441;-62
2022/07/10 01:58:57;;;;;;;2.17;1.00;;;;;;;;;;4992476;28;98506;-62
2022/07/10 02:01:24;;;;;;;2.60;0.90;;;;;;;;;;4992605;28;99476;-62
2022/07/10 02:06:35;;;;;;;1.60;1.00;;;;;;;;;;4992404;28;98619;-62
2022/07/10 02:09:01;;;;;;;2.08;0.85;;;;;;;;;;4993124;28;100319;-62
2022/07/10 02:11:28;;;;;;;1.08;0.63;;;;;;;;;;4992280;28;100625;-62
2022/07/10 02:13:54;;;;;;;2.80;1.00;;;;;;;;;;4992361;28;98731;-62
2022/07/10 02:16:20;;;;;;;0.93;0.63;;;;;;;;;;4994696;28;99696;-62
2022/07/10 02:18:46;;;;;;;1.42;0.70;;;;;;;;;;4991792;28;98579;-62
2022/07/10 02:21:13;;;;;;;1.15;0.70;;;;;;;;;;4992275;28;99131;-62
2022/07/10 02:23:40;;;;;;;2.05;0.98;;;;;;;;;;4991510;28;99516;-62
2022/07/10 02:26:07;;;;;;;1.33;0.75;;;;;;;;;;4992398;28;98545;-61
2022/07/10 02:28:33;;;;;;;2.70;0.70;;;;;;;;;;4992481;28;100433;-61
2022/07/10 02:30:59;;;;;;;3.47;0.93;;;;;;;;;;4991129;28;99538;-62
2022/07/10 02:33:25;;;;;;;2.88;1.00;;;;;;;;;;4992607;28;97758;-62
2022/07/10 02:35:52;;;;;;;1.17;0.70;;;;;;;;;;4992197;28;99806;-62
2022/07/10 02:38:18;;;;;;;1.17;0.60;;;;;;;;;;4994985;28;99666;-61
2022/07/10 02:40:45;;;;;;;1.40;0.88;;;;;;;;;;4991206;28;99199;-62
2022/07/10 02:43:11;;;;;;;0.90;0.60;;;;;;;;;;4991353;28;99722;-61
2022/07/10 02:45:38;;;;;;;3.03;0.80;;;;;;;;;;4991297;28;98618;-62
2022/07/10 02:48:11;;;;;;;1.27;0.88;;;;;;;;;;4991595;28;99465;-62
2022/07/10 02:50:37;;;;;;;2.20;0.80;;;;;;;;;;4990112;28;99599;-62
2022/07/10 02:53:04;;;;;;;1.10;0.60;;;;;;;;;;4991464;28;98555;-62
2022/07/10 02:55:31;;;;;;;2.00;0.70;;;;;;;;;;4991371;28;99174;-62
2022/07/10 02:57:58;;;;;;;2.47;0.98;;;;;;;;;;4991749;28;98975;-62
2022/07/10 03:00:26;;;;;;;1.88;0.60;;;;;;;;;;4994663;28;98535;-62
2022/07/10 03:02:53;;;;;;;3.33;0.90;;;;;;;;;;4991160;28;99763;-62
2022/07/10 03:05:19;;;;;;;1.83;0.70;;;;;;;;;;4990825;28;99868;-62
2022/07/10 03:07:45;;;;;;;1.92;0.68;;;;;;;;;;4991463;28;99974;-62
2022/07/10 03:10:11;;;;;;;0.70;0.63;;;;;;;;;;4991040;28;99616;-62
2022/07/10 03:12:38;;;;;;;2.05;0.80;;;;;;;;;;4991138;28;99090;-62
2022/07/10 03:15:05;;;;;;;3.38;0.85;;;;;;;;;;4991312;28;100369;-62
2022/07/10 03:17:31;;;;;;;1.10;0.80;;;;;;;;;;4990766;28;99849;-61
2022/07/10 03:19:58;;;;;;;1.33;0.98;;;;;;;;;;4991293;28;98570;-61
2022/07/10 03:22:24;;;;;;;3.47;0.80;;;;;;;;;;4994891;28;100312;-62
2022/07/10 03:24:50;;;;;;;2.05;0.70;;;;;;;;;;4991082;28;98430;-62
2022/07/10 03:27:17;;;;;;;1.55;0.57;;;;;;;;;;4991084;28;99216;-62
2022/07/10 03:29:43;;;;;;;1.17;0.70;;;;;;;;;;4990435;28;101262;-62
2022/07/10 03:32:09;;;;;;;1.27;0.65;;;;;;;;;;4990974;28;98515;-62
2022/07/10 03:34:36;;;;;;;2.03;1.00;;;;;;;;;;4991295;28;99510;-62
2022/07/10 03:37:03;;;;;;;3.47;0.70;;;;;;;;;;4990635;28;100056;-62
2022/07/10 03:39:29;;;;;;;1.08;0.70;;;;;;;;;;4991209;28;98523;-62
2022/07/10 03:41:55;;;;;;;1.70;0.82;;;;;;;;;;4990130;28;99186;-61
2022/07/10 03:44:22;;;;;;;3.08;0.98;;;;;;;;;;4994134;28;100627;-62
2022/07/10 03:46:48;;;;;;;2.13;1.10;;;;;;;;;;4991157;28;99682;-61
2022/07/10 03:49:14;;;;;;;3.60;0.65;;;;;;;;;;4990383;28;99549;-62
2022/07/10 03:51:41;;;;;;;2.55;1.10;;;;;;;;;;4990759;28;98599;-62
2022/07/10 03:54:07;;;;;;;1.55;0.60;;;;;;;;;;4989249;28;99592;-62
2022/07/10 03:59:18;;;;;;;1.90;0.70;;;;;;;;;;4990727;28;98582;-62
2022/07/10 04:01:45;;;;;;;1.00;0.70;;;;;;;;;;4990761;28;100142;-62
2022/07/10 04:04:11;;;;;;;3.05;0.73;;;;;;;;;;4991280;28;100611;-62
2022/07/10 04:06:38;;;;;;;0.98;0.70;;;;;;;;;;5000515;28;98505;-62
2022/07/10 04:09:05;;;;;;;0.90;0.70;;;;;;;;;;4996839;28;100530;-62
2022/07/10 04:11:31;;;;;;;1.52;0.82;;;;;;;;;;4997618;28;97871;-62
2022/07/10 04:13:57;;;;;;;3.42;0.85;;;;;;;;;;4997596;28;99899;-62
2022/07/10 04:16:23;;;;;;;2.58;0.68;;;;;;;;;;4996623;28;99642;-61
2022/07/10 04:18:50;;;;;;;1.45;0.70;;;;;;;;;;4996447;28;99232;-62
2022/07/10 04:21:16;;;;;;;3.40;1.15;;;;;;;;;;4997062;28;100390;-62
2022/07/10 04:23:42;;;;;;;1.40;1.00;;;;;;;;;;4996593;28;99596;-61
2022/07/10 04:26:09;;;;;;;1.85;0.77;;;;;;;;;;5000188;28;98646;-62
2022/07/10 04:28:35;;;;;;;1.30;0.65;;;;;;;;;;4996576;28;99894;-61
2022/07/10 04:31:02;;;;;;;2.53;0.70;;;;;;;;;;4997152;28;98524;-61
2022/07/10 04:33:28;;;;;;;1.67;0.70;;;;;;;;;;4997110;28;99177;-62
2022/07/10 04:35:54;;;;;;;2.45;0.75;;;;;;;;;;4996905;28;98876;-62
2022/07/10 04:38:21;;;;;;;2.35;0.80;;;;;;;;;;4997116;28;98457;-61
2022/07/10 04:40:47;;;;;;;3.10;0.95;;;;;;;;;;4996914;28;99373;-62
2022/07/10 04:43:13;;;;;;;1.48;0.80;;;;;;;;;;4995899;28;100327;-62
2022/07/10 04:45:40;;;;;;;0.65;0.60;;;;;;;;;;4996540;28;99242;-62
2022/07/10 04:48:06;;;;;;;1.45;0.65;;;;;;;;;;4999493;28;98967;-62
2022/07/10 04:50:32;;;;;;;2.08;0.80;;;;;;;;;;4996550;28;98530;-62
2022/07/10 04:52:59;;;;;;;1.30;0.70;;;;;;;;;;4995615;28;99096;-62
2022/07/10 04:55:25;;;;;;;2.20;0.88;;;;;;;;;;4996238;28;98672;-61
2022/07/10 04:57:52;;;;;;;2.65;0.90;;;;;;;;;;4996796;28;98529;-62
2022/07/10 05:00:18;;;;;;;2.60;0.88;;;;;;;;;;4996258;28;99630;-62
2022/07/10 05:02:44;;;;;;;0.93;0.75;;;;;;;;;;4995900;28;99703;-62
2022/07/10 05:05:11;;;;;;;3.28;0.90;;;;;;;;;;4996093;28;99239;-61
2022/07/10 05:07:37;;;;;;;1.55;0.73;;;;;;;;;;4996302;28;99336;-61
2022/07/10 05:10:04;;;;;;;1.65;0.65;;;;;;;;;;4999611;28;99583;-62
2022/07/10 05:12:30;;;;;;;0.82;0.63;;;;;;;;;;4996682;28;100017;-62
2022/07/10 05:14:57;;;;;;;2.85;0.85;;;;;;;;;;4996169;28;101045;-62
2022/07/10 05:17:23;;;;;;;2.38;0.95;;;;;;;;;;4973525;28;98576;-62
2022/07/10 05:19:51;;;;;;;2.97;1.00;;;;;;;;;;4972375;28;101771;-62
2022/07/10 05:22:17;;;;;;;1.20;0.60;;;;;;;;;;4972810;28;99903;-62
2022/07/10 05:24:44;;;;;;;1.60;0.80;;;;;;;;;;4973437;28;97854;-62
2022/07/10 05:27:10;;;;;;;2.75;1.08;;;;;;;;;;4972982;28;98517;-61
2022/07/10 05:29:36;;;;;;;2.17;0.68;;;;;;;;;;4972688;28;99533;-61
2022/07/10 05:32:03;;;;;;;1.77;0.90;;;;;;;;;;4975978;28;99267;-62
2022/07/10 05:34:29;;;;;;;2.25;1.00;;;;;;;;;;4972387;28;99577;-62
2022/07/10 05:36:55;;;;;;;1.65;0.70;;;;;;;;;;4972746;28;98515;-62
2022/07/10 05:39:25;;;;;;;2.25;0.70;;;;;;;;;;4973092;28;99125;-61
2022/07/10 05:41:52;;;;;;;2.72;0.95;;;;;;;;;;4972739;28;100835;-63
2022/07/10 05:44:19;;;;;;;1.05;0.70;;;;;;;;;;4973090;28;98515;-62
2022/07/10 05:46:46;;;;;;;1.02;0.75;;;;;;;;;;4988069;28;99628;-62
2022/07/10 05:49:12;;;;;;;1.63;0.70;;;;;;;;;;4993443;28;100972;-61
2022/07/10 05:51:38;;;;;;;1.20;0.80;;;;;;;;;;4992673;28;98548;-62
2022/07/10 05:54:10;;;;;;;1.30;0.80;;;;;;;;;;4995836;28;100158;-62
2022/07/10 05:56:37;;;;;;;1.52;0.80;;;;;;;;;;4992328;28;99622;-62
2022/07/10 05:59:03;;;;;;;3.00;0.80;;;;;;;;;;4992807;28;101398;-62
2022/07/10 06:01:29;;;;;;;2.22;0.93;;;;;;;;;;4992202;28;102121;-61
2022/07/10 06:03:56;;;;;;;1.75;0.70;;;;;;;;;;4972398;28;98509;-62
2022/07/10 06:06:22;;;;;;;1.88;0.90;;;;;;;;;;4972669;28;99303;-61
2022/07/10 06:08:48;;;;;;;1.67;0.60;;;;;;;;;;4972131;28;99583;-61
2022/07/10 06:11:16;;;;;;;3.67;1.00;;;;;;;;;;4972388;28;98491;-62
2022/07/10 06:13:42;;;;;;;2.22;0.70;;;;;;;;;;4975854;28;99656;-62
2022/07/10 06:16:08;;;;;;;1.98;0.90;;;;;;;;;;4982537;28;98541;-62
2022/07/10 06:18:34;;;;;;;2.67;0.82;;;;;;;;;;4992127;28;100226;-62
2022/07/10 06:21:01;;;;;;;1.48;0.70;;;;;;;;;;4991700;28;101248;-62
2022/07/10 06:23:29;;;;;;;0.80;0.73;;;;;;;;;;4992225;28;98608;-61
2022/07/10 06:25:55;;;;;;;2.03;0.80;;;;;;;;;;4992069;28;99344;-62
2022/07/10 06:28:22;;;;;;;1.30;0.80;;;;;;;;;;4991496;28;100559;-62
2022/07/10 06:30:48;;;;;;;0.90;0.68;;;;;;;;;;4992076;28;98502;-62
2022/07/10 06:33:14;;;;;;;1.77;0.90;;;;;;;;;;4991817;28;99211;-61
2022/07/10 06:35:41;;;;;;;3.58;0.88;;;;;;;;;;4995171;28;100553;-61
2022/07/10 06:38:07;;;;;;;2.45;0.90;;;;;;;;;;4992323;28;99500;-62
2022/07/10 06:40:35;;;;;;;1.08;0.70;;;;;;;;;;4991629;28;99502;-62
2022/07/10 06:43:02;;;;;;;1.98;1.00;;;;;;;;;;4991781;28;98537;-62
2022/07/10 06:45:28;;;;;;;5.68;1.13;;;;;;;;;;4991334;28;100178;-62
2022/07/10 06:47:58;;;;;;;1.95;0.88;;;;;;;;;;4991219;28;99323;-62
2022/07/10 06:50:32;;;;;;;1.35;0.73;;;;;;;;;;4991749;28;98860;-62
2022/07/10 06:52:59;;;;;;;2.08;0.85;;;;;;;;;;4991605;28;99488;-62
2022/07/10 06:55:25;;;;;;;0.82;0.70;;;;;;;;;;4991250;28;99698;-61
2022/07/10 06:57:52;;;;;;;1.25;0.70;;;;;;;;;;4994779;28;98603;-62
2022/07/10 07:00:19;;;;;;;1.60;0.70;;;;;;;;;;4990113;28;100034;-62
2022/07/10 07:02:45;;;;;;;1.55;0.70;;;;;;;;;;4991558;28;97825;-61
2022/07/10 07:05:12;;;;;;;2.45;1.10;;;;;;;;;;4991473;28;98814;-61
2022/07/10 07:07:38;;;;;;;2.38;0.77;;;;;;;;;;4991104;28;99743;-62
2022/07/10 07:10:05;;;;;;;1.65;0.80;;;;;;;;;;4990800;28;99229;-62
2022/07/10 07:12:32;;;;;;;2.10;0.77;;;;;;;;;;4991463;28;100043;-62
2022/07/10 07:14:58;;;;;;;1.48;0.80;;;;;;;;;;4990984;28;99804;-61
2022/07/10 07:17:33;;;;;;;2.58;0.73;;;;;;;;;;4991358;28;98752;-61
2022/07/10 07:25:29;;;;;;;0.77;0.77;;;;;;;;;;4991099;28;99050;-62
2022/07/10 07:27:55;;;;;;;2.60;1.05;;;;;;;;;;4991088;28;98766;-61
2022/07/10 07:30:22;;;;;;;2.42;0.90;;;;;;;;;;4991376;28;98636;-62
2022/07/10 07:32:48;;;;;;;2.80;0.73;;;;;;;;;;4991316;28;100220;-62
2022/07/10 07:35:15;;;;;;;1.77;0.70;;;;;;;;;;4989948;28;100327;-61
2022/07/10 07:37:41;;;;;;;2.10;0.70;;;;;;;;;;4991140;28;98519;-61
2022/07/10 07:40:09;;;;;;;1.95;1.23;;;;;;;;;;4990077;28;99519;-61
2022/07/10 07:42:36;;;;;;;2.75;0.90;;;;;;;;;;4994051;28;100524;-62
2022/07/10 07:45:03;;;;;;;2.03;0.85;;;;;;;;;;4990726;28;99220;-62
2022/07/10 07:47:30;;;;;;;2.03;0.80;;;;;;;;;;4990482;28;99491;-61
2022/07/10 07:49:57;;;;;;;2.97;0.95;;;;;;;;;;4990748;28;98512;-62
2022/07/10 07:52:23;;;;;;;1.38;0.60;;;;;;;;;;4991545;28;99159;-62
2022/07/10 07:54:50;;;;;;;2.05;0.77;;;;;;;;;;4990568;28;99728;-62
2022/07/10 07:57:17;;;;;;;1.20;0.70;;;;;;;;;;4991019;28;98591;-62
2022/07/10 07:59:43;;;;;;;1.27;0.70;;;;;;;;;;4990351;28;99498;-62
2022/07/10 08:02:10;;;;;;;2.40;0.90;;;;;;;;;;4990477;28;99889;-62
2022/07/10 08:04:36;;;;;;;2.45;0.90;;;;;;;;;;4994034;28;98537;-62
2022/07/10 08:07:03;;;;;;;1.70;0.70;;;;;;;;;;4989567;28;100070;-62
2022/07/10 08:09:29;;;;;;;2.00;0.85;;;;;;;;;;4990829;28;98677;-62
2022/07/10 08:11:56;;;;;;;0.73;0.70;;;;;;;;;;4990479;28;99169;-62
2022/07/10 08:14:22;;;;;;;1.33;0.65;;;;;;;;;;4990642;28;99139;-62
2022/07/10 08:16:50;;;;;;;3.08;1.23;;;;;;;;;;4990726;28;97817;-61
2022/07/10 08:19:17;;;;;;;1.17;0.70;;;;;;;;;;4990187;28;98951;-62
2022/07/10 08:21:43;;;;;;;2.22;0.82;;;;;;;;;;4990059;28;99645;-61
2022/07/10 08:24:09;;;;;;;2.05;0.93;;;;;;;;;;4993291;28;99260;-61
2022/07/10 08:26:36;;;;;;;1.63;0.70;;;;;;;;;;4989749;28;99623;-62
2022/07/10 08:29:02;;;;;;;1.42;0.80;;;;;;;;;;4990507;28;98815;-61
2022/07/10 08:31:28;;;;;;;1.38;0.80;;;;;;;;;;4990083;28;99346;-62
2022/07/10 08:33:55;;;;;;;2.40;0.90;;;;;;;;;;4989907;28;99530;-62
2022/07/10 08:36:21;;;;;;;1.92;0.75;;;;;;;;;;4989581;28;98599;-62
2022/07/10 08:39:06;;;;;;;1.63;0.90;;;;;;;;;;4990202;28;99177;-62
2022/07/10 08:41:34;;;;;;;3.30;0.90;;;;;;;;;;4990755;28;99228;-61
2022/07/10 08:44:01;;;;;;;2.03;0.80;;;;;;;;;;4989827;28;98508;-62
2022/07/10 08:46:27;;;;;;;1.20;0.70;;;;;;;;;;4993324;28;100484;-62
2022/07/10 08:48:54;;;;;;;1.27;0.73;;;;;;;;;;4989497;28;99243;-62
2022/07/10 08:51:35;;;;;;;1.25;0.70;;;;;;;;;;4991564;28;99979;-62
2022/07/10 08:54:01;;;;;;;1.52;0.60;;;;;;;;;;4993007;28;99693;-62
2022/07/10 08:56:27;;;;;;;2.47;1.00;;;;;;;;;;4993699;28;98455;-62
2022/07/10 08:58:54;;;;;;;0.85;0.60;;;;;;;;;;4993503;28;98474;-62
2022/07/10 09:01:23;;;;;;;2.20;0.93;;;;;;;;;;4993126;28;99853;-61
2022/07/10 09:03:50;;;;;;;1.42;0.80;;;;;;;;;;4993245;28;98518;-62
2022/07/10 09:06:16;;;;;;;2.20;0.80;;;;;;;;;;4993783;28;99341;-62
2022/07/10 09:08:59;;;;;;;2.80;0.70;;;;;;;;;;4996453;28;99518;-61
2022/07/10 09:11:28;;;;;;;1.33;0.80;;;;;;;;;;4993178;28;100017;-61
2022/07/10 09:13:57;;;;;;;1.17;0.77;;;;;;;;;;4992404;28;100311;-61
2022/07/10 09:16:27;;;;;;;1.60;0.90;;;;;;;;;;4993396;28;98456;-62
2022/07/10 09:18:54;;;;;;;2.13;0.70;;;;;;;;;;4992302;28;99106;-62
2022/07/10 09:21:21;;;;;;;2.28;0.98;;;;;;;;;;4992723;28;99469;-62
2022/07/10 09:23:54;;;;;;;1.77;0.80;;;;;;;;;;4993334;28;98435;-62
2022/07/10 09:26:21;;;;;;;2.17;0.80;;;;;;;;;;4993098;28;99242;-62
2022/07/10 09:28:52;;;;;;;2.58;1.25;;;;;;;;;;4992675;28;99656;-62
2022/07/10 09:31:19;;;;;;;1.25;0.80;;;;;;;;;;4996732;28;97776;-62
2022/07/10 09:33:46;;;;;;;0.98;0.65;;;;;;;;;;4992451;28;99639;-61
2022/07/10 09:36:13;;;;;;;2.28;0.70;;;;;;;;;;4991941;28;98635;-62
2022/07/10 09:38:42;;;;;;;1.13;0.70;;;;;;;;;;4992455;28;99529;-62
2022/07/10 09:41:12;;;;;;;1.30;0.68;;;;;;;;;;4992745;28;100934;-61
2022/07/10 09:43:45;;;;;;;1.13;0.60;;;;;;;;;;4992780;28;98497;-62
2022/07/10 09:46:12;;;;;;;1.42;0.80;;;;;;;;;;4992840;28;100065;-62
2022/07/10 09:48:39;;;;;;;0.90;0.73;;;;;;;;;;4992426;28;100628;-62
2022/07/10 09:51:08;;;;;;;1.88;0.60;;;;;;;;;;4992328;28;98578;-62
2022/07/10 09:53:42;;;;;;;2.58;0.98;;;;;;;;;;4995484;28;99173;-62
2022/07/10 09:56:09;;;;;;;1.25;0.60;;;;;;;;;;4993432;28;97750;-62
2022/07/10 09:58:36;;;;;;;1.10;0.70;;;;;;;;;;4992486;28;98611;-62
2022/07/10 10:01:07;;;;;;;3.13;0.85;;;;;;;;;;4992082;28;100602;-61
2022/07/10 10:03:37;;;;;;;0.95;0.60;;;;;;;;;;4990802;28;99275;-62
2022/07/10 10:06:04;;;;;;;1.30;0.68;;;;;;;;;;4992330;28;100067;-61
2022/07/10 10:08:36;;;;;;;1.90;1.00;;;;;;;;;;4992154;28;100075;-62
2022/07/10 10:11:04;;;;;;;2.25;0.80;;;;;;;;;;4992644;28;98475;-62
2022/07/10 10:13:30;;;;;;;2.22;0.90;;;;;;;;;;4991934;28;99180;-62
2022/07/10 10:15:57;;;;;;;0.65;0.60;;;;;;;;;;4995349;28;99429;-62
2022/07/10 10:18:24;;;;;;;1.33;0.80;;;;;;;;;;4991769;28;99577;-61
2022/07/10 10:20:54;;;;;;;2.80;0.70;;;;;;;;;;4992049;28;99083;-62
2022/07/10 10:23:24;;;;;;;0.90;0.75;;;;;;;;;;4992319;28;98505;-61
2022/07/10 10:25:51;;;;;;;;;;;;;;;;;;4992303;28;99803;-61
2022/07/10 10:28:20;;;;;;;2.42;1.02;;;;;;;;;;4990754;28;131340;-62
2022/07/10 10:30:47;;;;;;;1.17;0.80;;;;;;;;;;4992531;28;98509;-62
2022/07/10 10:33:31;;;;;;;1.60;1.05;;;;;;;;;;4992198;28;99506;-62
2022/07/10 10:35:58;;;;;;;1.70;0.50;;;;;;;;;;4995365;28;100703;-62
2022/07/10 10:38:46;;;;;;;1.10;0.70;;;;;;;;;;4992173;28;100281;-62
2022/07/10 10:41:27;;;;;;;1.48;0.70;;;;;;;;;;4991763;28;100503;-62
2022/07/10 10:44:16;;;;;;;2.03;1.10;;;;;;;;;;4992046;28;98531;-62
2022/07/10 10:47:01;;;;;;;1.25;0.77;;;;;;;;;;4991944;28;99222;-62
2022/07/10 10:49:48;;;;;;;0.93;0.70;;;;;;;;;;4991380;28;99666;-63
2022/07/10 10:52:15;;;;;;;1.85;0.73;;;;;;;;;;4991730;28;98465;-63
2022/07/10 10:54:57;;;;;;;0.82;0.75;;;;;;;;;;4991487;28;100296;-62
2022/07/10 10:57:44;;;;;;;0.50;0.50;;;;;;;;;;4991122;28;99797;-62
2022/07/10 11:00:14;;;;;;;0.88;0.60;;;;;;;;;;4994818;28;98622;-62
2022/07/10 11:02:44;;;;;;;3.05;0.85;;;;;;;;;;4990893;28;99943;-62
2022/07/10 11:05:10;;;;;;;0.63;0.60;;;;;;;;;;4991282;28;98575;-62
2022/07/10 11:07:55;;;;;;;0.68;0.68;;;;;;;;;;4991386;28;99188;-63
2022/07/10 11:10:37;;;;;;;1.48;0.80;;;;;;;;;;4991090;28;99736;-61
2022/07/10 11:13:14;;;;;;;0.93;0.60;;;;;;;;;;4991943;28;97970;-62
2022/07/10 11:15:49;;;;;;;1.83;1.00;;;;;;;;;;4989739;28;98861;-61
2022/07/10 11:18:16;;;;;;;1.55;0.75;;;;;;;;;;4990465;28;99842;-61
2022/07/10 11:20:49;;;;;;;1.13;0.68;;;;;;;;;;4991066;28;99347;-62
2022/07/10 11:23:21;;;;;;;0.85;0.70;;;;;;;;;;4994147;28;100124;-61
2022/07/10 11:26:10;;;;;;;0.80;0.70;;;;;;;;;;4991228;28;98520;-62
2022/07/10 11:28:51;;;;;;;2.30;0.68;;;;;;;;;;4991323;28;99342;-62
2022/07/10 11:31:18;;;;;;;1.25;0.60;;;;;;;;;;4990888;28;99686;-62
2022/07/10 11:33:46;;;;;;;1.58;0.90;;;;;;;;;;4991371;28;98660;-62
2022/07/10 11:36:16;;;;;;;1.38;0.82;;;;;;;;;;4990149;28;99214;-62
2022/07/10 11:38:44;;;;;;;2.13;0.95;;;;;;;;;;4991275;28;98777;-62
2022/07/10 11:41:17;;;;;;;1.92;0.88;;;;;;;;;;4990963;28;98891;-62
2022/07/10 11:43:47;;;;;;;1.55;0.80;;;;;;;;;;4991208;28;99232;-62
2022/07/10 11:46:14;;;;;;;2.50;0.63;;;;;;;;;;4992968;28;100588;-61
2022/07/10 11:48:40;;;;;;;2.08;0.82;;;;;;;;;;4989999;28;100204;-61
2022/07/10 11:51:27;;;;;;;1.90;0.90;;;;;;;;;;4990581;28;99680;-62
2022/07/10 11:54:03;;;;;;;1.35;0.77;;;;;;;;;;4990951;28;98637;-62
2022/07/10 11:56:34;;;;;;;1.45;0.60;;;;;;;;;;4990638;28;99272;-62
2022/07/10 11:59:00;;;;;;;1.60;0.88;;;;;;;;;;4990547;28;100847;-62
2022/07/10 12:01:32;;;;;;;0.70;0.70;;;;;;;;;;4990646;28;99183;-62
2022/07/10 12:04:03;;;;;;;0.63;0.60;;;;;;;;;;4971331;28;100284;-62
2022/07/10 12:06:31;;;;;;;1.50;0.65;;;;;;;;;;4986243;28;99480;-62
2022/07/10 12:09:04;;;;;;;1.73;0.80;;;;;;;;;;4994130;28;98537;-61
2022/07/10 12:11:30;;;;;;;1.90;0.95;;;;;;;;;;4989902;28;101455;-62
2022/07/10 12:14:17;;;;;;;0.88;0.70;;;;;;;;;;4990429;28;98487;-62
2022/07/10 12:16:44;;;;;;;2.05;0.60;;;;;;;;;;4990442;28;103428;-61
2022/07/10 12:19:12;;;;;;;1.20;0.70;;;;;;;;;;4989744;28;99540;-62
2022/07/10 12:21:39;;;;;;;2.50;1.00;;;;;;;;;;4990566;28;98544;-62
2022/07/10 12:24:06;;;;;;;0.75;0.70;;;;;;;;;;4990377;28;99702;-62
2022/07/10 12:26:34;;;;;;;1.13;0.70;;;;;;;;;;4991997;28;100547;-62
2022/07/10 12:29:01;;;;;;;1.13;0.77;;;;;;;;;;4994463;28;97745;-62
2022/07/10 12:31:28;;;;;;;1.08;0.70;;;;;;;;;;4997177;28;99628;-62
2022/07/10 12:34:01;;;;;;;0.98;0.70;;;;;;;;;;4994224;28;98546;-61
2022/07/10 12:37:00;;;;;;;1.17;0.70;;;;;;;;;;4993324;28;99257;-62
2022/07/10 12:39:27;;;;;;;1.85;0.75;;;;;;;;;;4970074;28;99703;-62
2022/07/10 12:41:53;;;;;;;1.00;0.60;;;;;;;;;;4993601;28;98558;-62
2022/07/10 12:44:31;;;;;;;0.80;0.65;;;;;;;;;;4993856;28;99541;-61
2022/07/10 12:47:08;;;;;;;1.90;0.88;;;;;;;;;;4993315;28;100833;-62
2022/07/10 12:49:48;;;;;;;0.60;0.57;;;;;;;;;;4993822;28;98575;-62
2022/07/10 12:52:27;;;;;;;0.97;0.70;;;;;;;;;;4996361;28;99227;-61
2022/07/10 12:55:15;;;;;;;0.70;0.68;;;;;;;;;;4993050;28;97874;-62
2022/07/10 12:57:49;;;;;;;1.77;0.68;;;;;;;;;;4992520;28;99878;-62
2022/07/10 13:00:18;;;;;;;1.50;0.70;;;;;;;;;;4992749;28;99982;-61
2022/07/10 13:02:49;;;;;;;0.55;0.50;;;;;;;;;;4992801;28;99543;-62
2022/07/10 13:05:30;;;;;;;1.35;0.68;;;;;;;;;;4993658;28;101155;-62
2022/07/10 13:08:10;;;;;;;0.50;0.50;;;;;;;;;;4993018;28;100552;-62
2022/07/10 13:10:36;;;;;;;1.73;0.85;;;;;;;;;;4993108;28;98546;-62
2022/07/10 13:13:03;;;;;;;1.20;0.68;;;;;;;;;;4993249;28;99472;-61
2022/07/10 13:15:30;;;;;;;0.90;0.60;;;;;;;;;;4996378;28;99496;-62
2022/07/10 13:17:56;;;;;;;1.73;1.08;;;;;;;;;;4992763;28;99634;-62
2022/07/10 13:20:23;;;;;;;0.70;0.68;;;;;;;;;;4993519;28;98994;-62
2022/07/10 13:22:49;;;;;;;1.02;0.70;;;;;;;;;;4992065;28;98556;-62
2022/07/10 13:25:15;;;;;;;1.50;0.68;;;;;;;;;;4993021;28;100254;-62
2022/07/10 13:27:42;;;;;;;1.00;0.80;;;;;;;;;;4992169;28;101596;-62
2022/07/10 13:30:08;;;;;;;0.73;0.50;;;;;;;;;;4993176;28;98532;-62
2022/07/10 13:32:35;;;;;;;0.82;0.70;;;;;;;;;;4992869;28;99299;-61
2022/07/10 13:35:01;;;;;;;0.95;0.60;;;;;;;;;;4992639;28;99572;-62
2022/07/10 13:37:27;;;;;;;0.95;0.80;;;;;;;;;;4995096;28;98531;-62
2022/07/10 13:39:54;;;;;;;2.30;0.65;;;;;;;;;;4992426;28;99815;-62
2022/07/10 13:42:20;;;;;;;0.50;0.50;;;;;;;;;;4992632;28;98559;-62
2022/07/10 13:44:46;;;;;;;0.50;0.50;;;;;;;;;;4993058;28;99705;-62
2022/07/10 13:47:13;;;;;;;1.48;0.70;;;;;;;;;;4991985;28;99521;-62
2022/07/10 13:49:39;;;;;;;0.70;0.70;;;;;;;;;;4992743;28;98556;-62
2022/07/10 13:52:06;;;;;;;1.17;0.80;;;;;;;;;;4992195;28;99509;-62
2022/07/10 13:54:32;;;;;;;1.15;0.70;;;;;;;;;;4992268;28;99604;-62
2022/07/10 13:56:58;;;;;;;1.00;0.50;;;;;;;;;;4992690;28;98807;-62
2022/07/10 13:59:25;;;;;;;0.57;0.57;;;;;;;;;;4995378;28;99213;-62
2022/07/10 14:01:52;;;;;;;0.77;0.70;;;;;;;;;;4992250;28;98524;-62
2022/07/10 14:04:18;;;;;;;1.20;0.80;;;;;;;;;;4992479;28;99219;-62
2022/07/10 14:06:44;;;;;;;1.30;0.70;;;;;;;;;;4992217;28;99498;-62
2022/07/10 14:09:11;;;;;;;0.60;0.60;;;;;;;;;;4992527;28;97766;-62
2022/07/10 14:11:37;;;;;;;0.50;0.50;;;;;;;;;;4991328;28;98501;-62
2022/07/10 14:14:03;;;;;;;1.05;0.68;;;;;;;;;;4992241;28;100540;-62
2022/07/10 14:16:30;;;;;;;0.63;0.63;;;;;;;;;;4991976;28;99320;-62
2022/07/10 14:18:56;;;;;;;0.93;0.57;;;;;;;;;;4991632;28;99827;-61
2022/07/10 14:21:27;;;;;;;0.50;0.50;;;;;;;;;;4995145;28;98949;-62
2022/07/10 14:23:53;;;;;;;1.30;0.60;;;;;;;;;;4992288;28;99454;-62
2022/07/10 14:26:19;;;;;;;0.80;0.80;;;;;;;;;;4991786;28;99689;-62
2022/07/10 14:28:46;;;;;;;1.00;0.50;;;;;;;;;;4991952;28;98567;-62
2022/07/10 14:31:13;;;;;;;0.93;0.65;;;;;;;;;;4992131;28;101760;-62
2022/07/10 14:33:39;;;;;;;1.30;0.60;;;;;;;;;;4992380;28;99781;-62
2022/07/10 14:36:06;;;;;;;1.05;0.75;;;;;;;;;;4991987;28;98504;-62
2022/07/10 14:38:32;;;;;;;0.77;0.60;;;;;;;;;;4991891;28;99698;-62
2022/07/10 14:40:59;;;;;;;1.65;0.52;;;;;;;;;;4991087;28;100349;-62
2022/07/10 14:43:26;;;;;;;0.93;0.50;;;;;;;;;;4995078;28;99068;-62
2022/07/10 14:45:53;;;;;;;1.60;0.65;;;;;;;;;;4991395;28;99737;-61
2022/07/10 14:48:28;;;;;;;0.60;0.50;;;;;;;;;;4991116;28;98593;-62
2022/07/10 14:50:57;;;;;;;0.80;0.50;;;;;;;;;;4991931;28;99203;-62
2022/07/10 14:53:23;;;;;;;1.05;0.60;;;;;;;;;;4991478;28;99546;-62
2022/07/10 14:55:49;;;;;;;0.80;0.50;;;;;;;;;;4991788;28;98520;-62
2022/07/10 14:58:16;;;;;;;0.70;0.55;;;;;;;;;;4991798;28;99194;-62